Decatur, IL (62521)

9:46 PM CST on February 10, 2016 (GMT -0600)
Sandhill Dr. | | Change Station
CLOSE
Current Station
Personal Weather Station
Location: Decatur, IL
Elevation: 676 ft
Nearby Weather Stations

Elev 676 ft 39.82 °N, 88.92 °W | Updated 5 seconds ago

Overcast
Overcast
18.7 °F
Feels Like 14 °F
N
3.1
Wind Variable Wind from WNW
Gusts 3.1 mph

Today
High -- | Low -- °F
--% Chance of Precip.
Yesterday
High -- | Low -- °F
Precip. -- in
Pressure 30.19 in
Visibility 10.0 miles
Clouds Mostly Cloudy 1900 ft
Overcast 10000 ft
Windchill 14 °F
Dew Point 16 °F
Humidity 88%
Rainfall 0.00 in
Snow Depth Not available.
6:54 AM 5:25 PM
Waxing Crescent, 9% visible
METAR KDEC 110254Z 28006KT 10SM BKN019 OVC100 M07/M11 A3016 RMK AO2 SLP224 T10721111 51012
Pressure 30.19 in
Visibility 10.0 miles
Clouds Mostly Cloudy 1900 ft
Overcast 10000 ft
Windchill 14 °F
Dew Point 16 °F
Humidity 88%
Rainfall 0.00 in
Snow Depth Not available.
6:54 AM 5:25 PM
Waxing Crescent, 9% visible
METAR KDEC 110254Z 28006KT 10SM BKN019 OVC100 M07/M11 A3016 RMK AO2 SLP224 T10721111 51012

10-Day Weather Forecast

Almanac

Astronomy

Feb. 10, 2016 Rise Set
Actual Time
Civil Twilight
Nautical Twilight
Astronomical Twilight
Moon
Length of Visible Light
Length of Day
Tomorrow will be .
, % of the Moon is Illuminated

Today's Extremes

State Highs State Lows

Community

WunderPhotos

Upload Photos

1,892,000 photos uploaded!

WunderBlog® & News

Nearby

Air Quality

  Air Quality AQ Index Pollutant
Not available.

Snow Depth

Station Depth Elevation

Earthquake Activity

City Distance Mag. Time & Date
Minimum magnitude displayed is 2.5.

Coastal Water Temperatures

Place Temperature

Stations

Nearby Weather Stations

Station Location Temp. Windchill Dew Point Humidity Wind Precip. Elev Updated Type
                   

Watches & Warnings

There are currently no watches in effect.